Terminal Aerodrome Forecast
Issued by NWS

Home | Current Version | Previous Version | Text Only | Print | Product List | Glossary On
Versions: 1 2 3 4 5 6 7 8 9 10 11 12 13
222
FTAK31 PAJN 260524
TAFAKT
TAF
PAKT 260524Z 2606/2706 33015KT P6SM SCT050
     FM261200 33012KT P6SM SCT015 OVC035
     FM261700 32012KT 6SM -RA BR SCT015 OVC025
     FM262300 32012KT P6SM SCT015 OVC025
      AMD LTD TO CLD VIS AND WIND 2606/2615=

USA.gov is the U.S. government's official web portal to all federal, state and local government web resources and services.